Rio Pico, Argentina
Current Conditions -  °F | °C
As of 12:00 AM on Tuesday 23 Dec 2014 (Local Time) from SCAP Reporting Station
Overcast Overcast  
Wind Chill: 54°   Ceiling: 4500
Heat Index: 54°   Visibility: NA
Dew Point: 41°   Wind: 9mph
Humidity: 62%   Direction: 230°SW
Pressure: 30.27"   Gusts: NA
Location:  44.2°S, 71.35°W
Report Text: SCAP 230300Z AUTO 23008KT 180V310 //// // OVC045 12/05 Q1025
Loading
Personal Weather Stations






























Interactive Weather Map New forecast layout! Learn more

10-Day Weather Forecast

Advertisements
Track Severe Weather on mobile